sensor_id;sensor_type;location;lat;lon;timestamp;temperature;humidity
64718;DHT22;62506;46.070;14.492;2023-02-16T00:00:40;21.40;44.20
64718;DHT22;62506;46.070;14.492;2023-02-16T00:03:09;21.40;44.20
64718;DHT22;62506;46.070;14.492;2023-02-16T00:05:35;21.40;44.30
64718;DHT22;62506;46.070;14.492;2023-02-16T00:08:01;21.40;44.30
64718;DHT22;62506;46.070;14.492;2023-02-16T00:10:29;21.40;44.30
64718;DHT22;62506;46.070;14.492;2023-02-16T00:12:55;21.40;44.30
64718;DHT22;62506;46.070;14.492;2023-02-16T00:15:59;21.40;44.30
64718;DHT22;62506;46.070;14.492;2023-02-16T00:18:25;21.40;44.30
64718;DHT22;62506;46.070;14.492;2023-02-16T00:20:50;21.40;44.30
64718;DHT22;62506;46.070;14.492;2023-02-16T00:23:16;21.40;44.30
64718;DHT22;62506;46.070;14.492;2023-02-16T00:25:41;21.40;44.30
64718;DHT22;62506;46.070;14.492;2023-02-16T00:28:11;21.40;44.30
64718;DHT22;62506;46.070;14.492;2023-02-16T00:30:37;21.40;44.30
64718;DHT22;62506;46.070;14.492;2023-02-16T00:33:08;21.40;44.40
64718;DHT22;62506;46.070;14.492;2023-02-16T00:35:37;21.40;44.30
64718;DHT22;62506;46.070;14.492;2023-02-16T00:38:03;21.40;44.30
64718;DHT22;62506;46.070;14.492;2023-02-16T00:40:29;21.30;44.30
64718;DHT22;62506;46.070;14.492;2023-02-16T00:42:54;21.30;44.30
64718;DHT22;62506;46.070;14.492;2023-02-16T00:45:20;21.40;44.30
64718;DHT22;62506;46.070;14.492;2023-02-16T00:47:46;21.30;44.30
64718;DHT22;62506;46.070;14.492;2023-02-16T00:52:41;21.30;44.30
64718;DHT22;62506;46.070;14.492;2023-02-16T00:55:08;21.30;44.20
64718;DHT22;62506;46.070;14.492;2023-02-16T00:57:35;21.30;44.30
64718;DHT22;62506;46.070;14.492;2023-02-16T01:00:07;21.30;44.20
64718;DHT22;62506;46.070;14.492;2023-02-16T01:02:36;21.30;44.20
64718;DHT22;62506;46.070;14.492;2023-02-16T01:05:01;21.30;44.20
64718;DHT22;62506;46.070;14.492;2023-02-16T01:07:27;21.30;44.30
64718;DHT22;62506;46.070;14.492;2023-02-16T01:10:11;21.30;44.30
64718;DHT22;62506;46.070;14.492;2023-02-16T01:12:55;21.30;44.30
64718;DHT22;62506;46.070;14.492;2023-02-16T01:15:21;21.30;44.30
64718;DHT22;62506;46.070;14.492;2023-02-16T01:17:48;21.30;44.30
64718;DHT22;62506;46.070;14.492;2023-02-16T01:20:15;21.30;44.30
64718;DHT22;62506;46.070;14.492;2023-02-16T01:22:41;21.30;44.30
64718;DHT22;62506;46.070;14.492;2023-02-16T01:25:07;21.30;44.30
64718;DHT22;62506;46.070;14.492;2023-02-16T01:27:33;21.30;44.30
64718;DHT22;62506;46.070;14.492;2023-02-16T01:30:00;21.30;44.30
64718;DHT22;62506;46.070;14.492;2023-02-16T01:32:26;21.30;44.30
64718;DHT22;62506;46.070;14.492;2023-02-16T01:34:51;21.30;44.20
64718;DHT22;62506;46.070;14.492;2023-02-16T01:37:17;21.30;44.20
64718;DHT22;62506;46.070;14.492;2023-02-16T01:39:44;21.30;44.20
64718;DHT22;62506;46.070;14.492;2023-02-16T01:49:57;21.30;44.20
64718;DHT22;62506;46.070;14.492;2023-02-16T01:52:28;21.30;44.20
64718;DHT22;62506;46.070;14.492;2023-02-16T01:54:57;21.30;44.20
64718;DHT22;62506;46.070;14.492;2023-02-16T02:02:19;21.30;44.20
64718;DHT22;62506;46.070;14.492;2023-02-16T02:04:58;21.30;44.20
64718;DHT22;62506;46.070;14.492;2023-02-16T02:10:16;21.30;44.20
64718;DHT22;62506;46.070;14.492;2023-02-16T02:12:49;21.30;44.10
64718;DHT22;62506;46.070;14.492;2023-02-16T02:15:16;21.30;44.20
64718;DHT22;62506;46.070;14.492;2023-02-16T02:17:42;21.30;44.20
64718;DHT22;62506;46.070;14.492;2023-02-16T02:32:54;21.30;44.20
64718;DHT22;62506;46.070;14.492;2023-02-16T02:40:58;21.20;44.10
64718;DHT22;62506;46.070;14.492;2023-02-16T02:45:54;21.20;44.10
64718;DHT22;62506;46.070;14.492;2023-02-16T02:48:20;21.20;44.20
64718;DHT22;62506;46.070;14.492;2023-02-16T02:50:48;21.20;44.20
64718;DHT22;62506;46.070;14.492;2023-02-16T02:53:35;21.20;44.20
64718;DHT22;62506;46.070;14.492;2023-02-16T02:56:02;21.20;44.20
64718;DHT22;62506;46.070;14.492;2023-02-16T02:58:48;21.20;44.20
64718;DHT22;62506;46.070;14.492;2023-02-16T03:01:33;21.20;44.30
64718;DHT22;62506;46.070;14.492;2023-02-16T03:04:00;21.20;44.30
64718;DHT22;62506;46.070;14.492;2023-02-16T03:06:32;21.20;44.20
64718;DHT22;62506;46.070;14.492;2023-02-16T03:09:01;21.20;44.20
64718;DHT22;62506;46.070;14.492;2023-02-16T03:11:28;21.20;44.20
64718;DHT22;62506;46.070;14.492;2023-02-16T03:14:32;21.10;44.20
64718;DHT22;62506;46.070;14.492;2023-02-16T03:17:09;21.10;44.20
64718;DHT22;62506;46.070;14.492;2023-02-16T03:19:54;21.10;44.20
64718;DHT22;62506;46.070;14.492;2023-02-16T03:22:39;21.10;44.20
64718;DHT22;62506;46.070;14.492;2023-02-16T03:25:25;21.20;44.30
64718;DHT22;62506;46.070;14.492;2023-02-16T03:28:11;21.10;44.20
64718;DHT22;62506;46.070;14.492;2023-02-16T03:30:55;21.10;44.20
64718;DHT22;62506;46.070;14.492;2023-02-16T03:33:22;21.10;44.20
64718;DHT22;62506;46.070;14.492;2023-02-16T03:35:48;21.10;44.20
64718;DHT22;62506;46.070;14.492;2023-02-16T03:38:14;21.10;44.30
64718;DHT22;62506;46.070;14.492;2023-02-16T03:40:39;21.10;44.20
64718;DHT22;62506;46.070;14.492;2023-02-16T03:43:07;21.10;44.20
64718;DHT22;62506;46.070;14.492;2023-02-16T03:45:33;21.10;44.20
64718;DHT22;62506;46.070;14.492;2023-02-16T03:48:00;21.10;44.20
64718;DHT22;62506;46.070;14.492;2023-02-16T03:50:25;21.10;44.10
64718;DHT22;62506;46.070;14.492;2023-02-16T03:52:51;21.10;44.10
64718;DHT22;62506;46.070;14.492;2023-02-16T03:55:17;21.10;44.10
64718;DHT22;62506;46.070;14.492;2023-02-16T03:57:42;21.10;44.10
64718;DHT22;62506;46.070;14.492;2023-02-16T04:00:08;21.20;44.20
64718;DHT22;62506;46.070;14.492;2023-02-16T04:02:33;21.10;44.10
64718;DHT22;62506;46.070;14.492;2023-02-16T04:04:59;21.10;44.10
64718;DHT22;62506;46.070;14.492;2023-02-16T04:07:25;21.10;44.00
64718;DHT22;62506;46.070;14.492;2023-02-16T04:09:50;21.10;44.10
64718;DHT22;62506;46.070;14.492;2023-02-16T04:12:16;21.10;44.10
64718;DHT22;62506;46.070;14.492;2023-02-16T04:15:00;21.10;44.00
64718;DHT22;62506;46.070;14.492;2023-02-16T04:17:26;21.10;44.00
64718;DHT22;62506;46.070;14.492;2023-02-16T04:19:51;21.10;44.10
64718;DHT22;62506;46.070;14.492;2023-02-16T04:22:17;21.10;44.00
64718;DHT22;62506;46.070;14.492;2023-02-16T04:24:42;21.10;44.00
64718;DHT22;62506;46.070;14.492;2023-02-16T04:27:08;21.10;44.00
64718;DHT22;62506;46.070;14.492;2023-02-16T04:29:33;21.10;44.00
64718;DHT22;62506;46.070;14.492;2023-02-16T04:31:59;21.10;44.00
64718;DHT22;62506;46.070;14.492;2023-02-16T04:34:24;21.10;43.90
64718;DHT22;62506;46.070;14.492;2023-02-16T04:36:50;21.10;43.40
64718;DHT22;62506;46.070;14.492;2023-02-16T04:39:15;21.20;43.00
64718;DHT22;62506;46.070;14.492;2023-02-16T04:41:41;21.20;42.80
64718;DHT22;62506;46.070;14.492;2023-02-16T04:44:06;21.20;42.80
64718;DHT22;62506;46.070;14.492;2023-02-16T04:46:32;21.30;42.70
64718;DHT22;62506;46.070;14.492;2023-02-16T04:48:58;21.30;42.60
64718;DHT22;62506;46.070;14.492;2023-02-16T04:51:23;21.30;42.80
64718;DHT22;62506;46.070;14.492;2023-02-16T04:53:49;21.40;42.80
64718;DHT22;62506;46.070;14.492;2023-02-16T04:56:14;21.40;42.90
64718;DHT22;62506;46.070;14.492;2023-02-16T04:58:40;21.40;43.20
64718;DHT22;62506;46.070;14.492;2023-02-16T05:01:05;21.40;43.20
64718;DHT22;62506;46.070;14.492;2023-02-16T05:03:31;21.50;43.20
64718;DHT22;62506;46.070;14.492;2023-02-16T05:05:57;21.50;43.30
64718;DHT22;62506;46.070;14.492;2023-02-16T05:08:22;21.60;43.90
64718;DHT22;62506;46.070;14.492;2023-02-16T05:10:48;21.60;45.40
64718;DHT22;62506;46.070;14.492;2023-02-16T05:13:32;21.60;43.60
64718;DHT22;62506;46.070;14.492;2023-02-16T05:16:18;21.70;43.90
64718;DHT22;62506;46.070;14.492;2023-02-16T05:18:44;21.70;44.10
64718;DHT22;62506;46.070;14.492;2023-02-16T05:21:09;21.70;44.00
64718;DHT22;62506;46.070;14.492;2023-02-16T05:23:53;21.70;44.00
64718;DHT22;62506;46.070;14.492;2023-02-16T05:26:19;21.70;43.90
64718;DHT22;62506;46.070;14.492;2023-02-16T05:28:44;21.70;43.70
64718;DHT22;62506;46.070;14.492;2023-02-16T05:31:10;21.70;43.60
64718;DHT22;62506;46.070;14.492;2023-02-16T05:33:35;21.70;43.70
64718;DHT22;62506;46.070;14.492;2023-02-16T05:36:01;21.70;43.80
64718;DHT22;62506;46.070;14.492;2023-02-16T05:38:26;21.70;44.00
64718;DHT22;62506;46.070;14.492;2023-02-16T05:40:52;21.80;44.60
64718;DHT22;62506;46.070;14.492;2023-02-16T05:43:18;21.80;44.40
64718;DHT22;62506;46.070;14.492;2023-02-16T05:45:43;21.70;44.00
64718;DHT22;62506;46.070;14.492;2023-02-16T05:48:09;21.70;43.80
64718;DHT22;62506;46.070;14.492;2023-02-16T05:50:34;21.70;43.90
64718;DHT22;62506;46.070;14.492;2023-02-16T05:53:00;21.80;44.30
64718;DHT22;62506;46.070;14.492;2023-02-16T05:55:25;21.70;43.30
64718;DHT22;62506;46.070;14.492;2023-02-16T05:57:51;21.70;43.10
64718;DHT22;62506;46.070;14.492;2023-02-16T06:00:16;21.70;43.10
64718;DHT22;62506;46.070;14.492;2023-02-16T06:02:42;21.70;43.10
64718;DHT22;62506;46.070;14.492;2023-02-16T06:05:08;21.70;43.10
64718;DHT22;62506;46.070;14.492;2023-02-16T06:07:33;21.70;43.10
64718;DHT22;62506;46.070;14.492;2023-02-16T06:09:59;21.70;43.20
64718;DHT22;62506;46.070;14.492;2023-02-16T06:12:24;21.70;43.10
64718;DHT22;62506;46.070;14.492;2023-02-16T06:14:50;21.70;43.10
64718;DHT22;62506;46.070;14.492;2023-02-16T06:17:15;21.70;42.90
64718;DHT22;62506;46.070;14.492;2023-02-16T06:19:41;21.70;42.70
64718;DHT22;62506;46.070;14.492;2023-02-16T06:22:06;21.60;42.60
64718;DHT22;62506;46.070;14.492;2023-02-16T06:24:32;21.60;42.10
64718;DHT22;62506;46.070;14.492;2023-02-16T06:26:58;21.60;42.50
64718;DHT22;62506;46.070;14.492;2023-02-16T06:29:23;21.60;42.70
64718;DHT22;62506;46.070;14.492;2023-02-16T06:31:49;21.60;42.80
64718;DHT22;62506;46.070;14.492;2023-02-16T06:34:14;21.60;42.90
64718;DHT22;62506;46.070;14.492;2023-02-16T06:36:40;21.60;42.70
64718;DHT22;62506;46.070;14.492;2023-02-16T06:39:05;21.60;42.80
64718;DHT22;62506;46.070;14.492;2023-02-16T06:41:31;21.60;42.40
64718;DHT22;62506;46.070;14.492;2023-02-16T06:44:00;21.60;42.50
64718;DHT22;62506;46.070;14.492;2023-02-16T06:46:26;21.60;42.50
64718;DHT22;62506;46.070;14.492;2023-02-16T06:48:52;21.60;42.50
64718;DHT22;62506;46.070;14.492;2023-02-16T06:51:17;21.50;42.70
64718;DHT22;62506;46.070;14.492;2023-02-16T06:53:43;21.50;42.50
64718;DHT22;62506;46.070;14.492;2023-02-16T06:56:08;21.50;42.50
64718;DHT22;62506;46.070;14.492;2023-02-16T06:58:34;21.50;42.50
64718;DHT22;62506;46.070;14.492;2023-02-16T07:00:59;21.50;42.50
64718;DHT22;62506;46.070;14.492;2023-02-16T07:03:25;21.50;42.50
64718;DHT22;62506;46.070;14.492;2023-02-16T07:05:50;21.50;42.50
64718;DHT22;62506;46.070;14.492;2023-02-16T07:08:16;21.50;41.40
64718;DHT22;62506;46.070;14.492;2023-02-16T07:10:42;21.40;41.10
64718;DHT22;62506;46.070;14.492;2023-02-16T07:13:08;21.40;41.60
64718;DHT22;62506;46.070;14.492;2023-02-16T07:15:33;21.40;42.10
64718;DHT22;62506;46.070;14.492;2023-02-16T07:17:59;21.40;42.20
64718;DHT22;62506;46.070;14.492;2023-02-16T07:20:24;21.40;42.10
64718;DHT22;62506;46.070;14.492;2023-02-16T07:22:51;21.50;42.20
64718;DHT22;62506;46.070;14.492;2023-02-16T07:25:16;21.40;41.30
64718;DHT22;62506;46.070;14.492;2023-02-16T07:27:42;21.40;41.70
64718;DHT22;62506;46.070;14.492;2023-02-16T07:30:08;21.40;41.80
64718;DHT22;62506;46.070;14.492;2023-02-16T07:32:33;21.40;41.90
64718;DHT22;62506;46.070;14.492;2023-02-16T07:34:59;21.40;41.90
64718;DHT22;62506;46.070;14.492;2023-02-16T07:37:24;21.40;41.80
64718;DHT22;62506;46.070;14.492;2023-02-16T07:39:50;21.40;42.20
64718;DHT22;62506;46.070;14.492;2023-02-16T07:42:17;21.40;42.30
64718;DHT22;62506;46.070;14.492;2023-02-16T07:44:43;21.40;42.10
64718;DHT22;62506;46.070;14.492;2023-02-16T07:47:09;21.40;42.00
64718;DHT22;62506;46.070;14.492;2023-02-16T07:49:34;21.40;41.80
64718;DHT22;62506;46.070;14.492;2023-02-16T07:52:00;21.40;41.80
64718;DHT22;62506;46.070;14.492;2023-02-16T07:54:25;21.40;41.80
64718;DHT22;62506;46.070;14.492;2023-02-16T07:56:51;21.40;41.80
64718;DHT22;62506;46.070;14.492;2023-02-16T07:59:16;21.40;41.80
64718;DHT22;62506;46.070;14.492;2023-02-16T08:01:42;21.40;41.80
64718;DHT22;62506;46.070;14.492;2023-02-16T08:04:08;21.40;41.70
64718;DHT22;62506;46.070;14.492;2023-02-16T08:06:33;21.30;41.70
64718;DHT22;62506;46.070;14.492;2023-02-16T08:08:59;21.40;41.70
64718;DHT22;62506;46.070;14.492;2023-02-16T08:11:25;21.40;41.70
64718;DHT22;62506;46.070;14.492;2023-02-16T08:13:50;21.40;41.80
64718;DHT22;62506;46.070;14.492;2023-02-16T08:16:17;21.40;41.70
64718;DHT22;62506;46.070;14.492;2023-02-16T08:18:43;21.30;41.40
64718;DHT22;62506;46.070;14.492;2023-02-16T08:21:10;21.30;41.50
64718;DHT22;62506;46.070;14.492;2023-02-16T08:23:43;21.30;41.50
64718;DHT22;62506;46.070;14.492;2023-02-16T08:26:12;21.30;41.50
64718;DHT22;62506;46.070;14.492;2023-02-16T08:28:37;21.30;41.50
64718;DHT22;62506;46.070;14.492;2023-02-16T08:31:13;21.30;41.40
64718;DHT22;62506;46.070;14.492;2023-02-16T08:33:38;21.30;41.40
64718;DHT22;62506;46.070;14.492;2023-02-16T08:36:04;21.30;41.40
64718;DHT22;62506;46.070;14.492;2023-02-16T08:38:34;21.30;41.40
64718;DHT22;62506;46.070;14.492;2023-02-16T08:41:00;21.30;41.40
64718;DHT22;62506;46.070;14.492;2023-02-16T08:43:25;21.30;41.30
64718;DHT22;62506;46.070;14.492;2023-02-16T08:45:51;21.30;41.40
64718;DHT22;62506;46.070;14.492;2023-02-16T08:48:17;21.30;41.40
64718;DHT22;62506;46.070;14.492;2023-02-16T08:50:46;21.30;41.30
64718;DHT22;62506;46.070;14.492;2023-02-16T08:53:18;21.30;41.20
64718;DHT22;62506;46.070;14.492;2023-02-16T08:55:55;21.30;41.40
64718;DHT22;62506;46.070;14.492;2023-02-16T08:58:21;21.30;41.20
64718;DHT22;62506;46.070;14.492;2023-02-16T09:00:47;21.20;41.20
64718;DHT22;62506;46.070;14.492;2023-02-16T09:03:12;21.20;41.20
64718;DHT22;62506;46.070;14.492;2023-02-16T09:05:38;21.30;41.30
64718;DHT22;62506;46.070;14.492;2023-02-16T09:08:04;21.30;41.30
64718;DHT22;62506;46.070;14.492;2023-02-16T09:10:30;21.20;41.30
64718;DHT22;62506;46.070;14.492;2023-02-16T09:12:56;21.20;41.20
64718;DHT22;62506;46.070;14.492;2023-02-16T09:15:22;21.30;41.20
64718;DHT22;62506;46.070;14.492;2023-02-16T09:17:48;21.30;41.20
64718;DHT22;62506;46.070;14.492;2023-02-16T09:20:13;21.30;41.10
64718;DHT22;62506;46.070;14.492;2023-02-16T09:22:42;21.30;41.10
64718;DHT22;62506;46.070;14.492;2023-02-16T09:25:08;21.30;41.10
64718;DHT22;62506;46.070;14.492;2023-02-16T09:27:35;21.30;41.10
64718;DHT22;62506;46.070;14.492;2023-02-16T09:30:02;21.30;41.10
64718;DHT22;62506;46.070;14.492;2023-02-16T09:32:28;21.30;41.10
64718;DHT22;62506;46.070;14.492;2023-02-16T09:34:54;21.30;41.10
64718;DHT22;62506;46.070;14.492;2023-02-16T09:37:20;21.30;41.10
64718;DHT22;62506;46.070;14.492;2023-02-16T09:39:45;21.30;41.10
64718;DHT22;62506;46.070;14.492;2023-02-16T09:45:07;21.30;41.20
64718;DHT22;62506;46.070;14.492;2023-02-16T09:47:37;21.30;41.00
64718;DHT22;62506;46.070;14.492;2023-02-16T09:50:16;21.30;41.00
64718;DHT22;62506;46.070;14.492;2023-02-16T09:52:48;21.30;40.70
64718;DHT22;62506;46.070;14.492;2023-02-16T09:55:15;21.30;40.80
64718;DHT22;62506;46.070;14.492;2023-02-16T10:00:34;21.30;41.10
64718;DHT22;62506;46.070;14.492;2023-02-16T10:03:26;21.30;41.00
64718;DHT22;62506;46.070;14.492;2023-02-16T10:08:24;21.30;41.10
64718;DHT22;62506;46.070;14.492;2023-02-16T10:11:06;21.20;37.30
64718;DHT22;62506;46.070;14.492;2023-02-16T10:13:55;20.80;37.70
64718;DHT22;62506;46.070;14.492;2023-02-16T10:16:27;20.90;39.30
64718;DHT22;62506;46.070;14.492;2023-02-16T10:19:18;21.00;40.10
64718;DHT22;62506;46.070;14.492;2023-02-16T10:21:46;21.00;39.10
64718;DHT22;62506;46.070;14.492;2023-02-16T10:27:06;21.10;40.20
64718;DHT22;62506;46.070;14.492;2023-02-16T10:29:35;21.20;41.30
64718;DHT22;62506;46.070;14.492;2023-02-16T10:34:44;21.30;40.60
64718;DHT22;62506;46.070;14.492;2023-02-16T10:40:00;21.30;41.00
64718;DHT22;62506;46.070;14.492;2023-02-16T10:44:57;21.30;41.30
64718;DHT22;62506;46.070;14.492;2023-02-16T10:47:42;21.30;41.40
64718;DHT22;62506;46.070;14.492;2023-02-16T10:52:55;21.30;41.20
64718;DHT22;62506;46.070;14.492;2023-02-16T10:55:22;21.30;41.50
64718;DHT22;62506;46.070;14.492;2023-02-16T10:57:55;21.20;41.80
64718;DHT22;62506;46.070;14.492;2023-02-16T11:03:07;21.20;41.50
64718;DHT22;62506;46.070;14.492;2023-02-16T11:05:35;21.20;41.90
64718;DHT22;62506;46.070;14.492;2023-02-16T11:08:02;21.20;42.00
64718;DHT22;62506;46.070;14.492;2023-02-16T11:13:03;21.20;42.10
64718;DHT22;62506;46.070;14.492;2023-02-16T11:15:29;21.20;42.10
64718;DHT22;62506;46.070;14.492;2023-02-16T11:18:00;21.20;42.10
64718;DHT22;62506;46.070;14.492;2023-02-16T11:20:33;21.20;41.80
64718;DHT22;62506;46.070;14.492;2023-02-16T11:26:00;21.20;42.10
64718;DHT22;62506;46.070;14.492;2023-02-16T11:28:31;21.20;42.30
64718;DHT22;62506;46.070;14.492;2023-02-16T11:31:39;21.30;42.10
64718;DHT22;62506;46.070;14.492;2023-02-16T11:33:56;21.30;41.60
64718;DHT22;62506;46.070;14.492;2023-02-16T11:36:32;21.20;40.70
64718;DHT22;62506;46.070;14.492;2023-02-16T11:39:20;21.20;41.50
64718;DHT22;62506;46.070;14.492;2023-02-16T11:41:48;21.20;41.60
64718;DHT22;62506;46.070;14.492;2023-02-16T11:46:56;21.30;41.80
64718;DHT22;62506;46.070;14.492;2023-02-16T11:51:57;21.30;42.00
64718;DHT22;62506;46.070;14.492;2023-02-16T11:54:22;21.30;42.30
64718;DHT22;62506;46.070;14.492;2023-02-16T11:57:05;21.30;41.50
64718;DHT22;62506;46.070;14.492;2023-02-16T11:59:35;21.30;42.00
64718;DHT22;62506;46.070;14.492;2023-02-16T12:02:09;21.30;42.10
64718;DHT22;62506;46.070;14.492;2023-02-16T12:09:44;21.30;42.20
64718;DHT22;62506;46.070;14.492;2023-02-16T12:15:03;21.30;42.30
64718;DHT22;62506;46.070;14.492;2023-02-16T12:17:43;21.30;42.40
64718;DHT22;62506;46.070;14.492;2023-02-16T12:22:45;21.30;42.50
64718;DHT22;62506;46.070;14.492;2023-02-16T12:28:03;21.30;42.70
64718;DHT22;62506;46.070;14.492;2023-02-16T12:33:21;21.30;43.40
64718;DHT22;62506;46.070;14.492;2023-02-16T12:46:12;21.50;42.60
64718;DHT22;62506;46.070;14.492;2023-02-16T12:51:51;21.50;42.60
64718;DHT22;62506;46.070;14.492;2023-02-16T12:56:26;21.50;42.50
64718;DHT22;62506;46.070;14.492;2023-02-16T12:58:54;21.50;42.60
64718;DHT22;62506;46.070;14.492;2023-02-16T13:01:27;21.50;42.60
64718;DHT22;62506;46.070;14.492;2023-02-16T13:03:58;21.50;42.70
64718;DHT22;62506;46.070;14.492;2023-02-16T13:06:37;21.50;42.60
64718;DHT22;62506;46.070;14.492;2023-02-16T13:11:45;21.60;42.70
64718;DHT22;62506;46.070;14.492;2023-02-16T13:14:17;21.60;42.60
64718;DHT22;62506;46.070;14.492;2023-02-16T13:19:11;21.60;42.70
64718;DHT22;62506;46.070;14.492;2023-02-16T13:27:05;21.60;42.90
64718;DHT22;62506;46.070;14.492;2023-02-16T13:29:43;21.60;42.90
64718;DHT22;62506;46.070;14.492;2023-02-16T13:34:45;21.50;43.10
64718;DHT22;62506;46.070;14.492;2023-02-16T13:42:32;21.40;43.20
64718;DHT22;62506;46.070;14.492;2023-02-16T13:45:18;21.40;43.30
64718;DHT22;62506;46.070;14.492;2023-02-16T13:47:45;21.40;43.40
64718;DHT22;62506;46.070;14.492;2023-02-16T13:50:30;21.40;43.40
64718;DHT22;62506;46.070;14.492;2023-02-16T13:52:57;21.40;43.40
64718;DHT22;62506;46.070;14.492;2023-02-16T13:55:33;21.40;43.40
64718;DHT22;62506;46.070;14.492;2023-02-16T14:05:38;21.40;43.50
64718;DHT22;62506;46.070;14.492;2023-02-16T14:08:24;21.40;43.30
64718;DHT22;62506;46.070;14.492;2023-02-16T14:13:23;21.40;43.60
64718;DHT22;62506;46.070;14.492;2023-02-16T14:15:51;21.40;43.70
64718;DHT22;62506;46.070;14.492;2023-02-16T14:20:59;21.40;43.80
64718;DHT22;62506;46.070;14.492;2023-02-16T14:23:26;21.30;43.80
64718;DHT22;62506;46.070;14.492;2023-02-16T14:25:58;21.30;43.80
64718;DHT22;62506;46.070;14.492;2023-02-16T14:30:59;21.40;43.80
64718;DHT22;62506;46.070;14.492;2023-02-16T14:38:28;21.40;43.90
64718;DHT22;62506;46.070;14.492;2023-02-16T14:40:57;21.40;43.90
64718;DHT22;62506;46.070;14.492;2023-02-16T14:43:34;21.40;43.80
64718;DHT22;62506;46.070;14.492;2023-02-16T14:51:26;21.40;43.50
64718;DHT22;62506;46.070;14.492;2023-02-16T15:00:27;21.40;43.50
64718;DHT22;62506;46.070;14.492;2023-02-16T15:03:45;21.30;43.40
64718;DHT22;62506;46.070;14.492;2023-02-16T15:06:40;21.30;43.30
64718;DHT22;62506;46.070;14.492;2023-02-16T15:09:30;21.40;43.10
64718;DHT22;62506;46.070;14.492;2023-02-16T15:12:15;21.40;42.90
64718;DHT22;62506;46.070;14.492;2023-02-16T15:17:20;21.50;42.90
64718;DHT22;62506;46.070;14.492;2023-02-16T15:19:57;21.50;42.90
64718;DHT22;62506;46.070;14.492;2023-02-16T15:22:49;21.60;42.90
64718;DHT22;62506;46.070;14.492;2023-02-16T15:25:31;21.60;42.80
64718;DHT22;62506;46.070;14.492;2023-02-16T15:30:26;21.70;42.60
64718;DHT22;62506;46.070;14.492;2023-02-16T15:32:54;21.70;42.90
64718;DHT22;62506;46.070;14.492;2023-02-16T15:36:11;21.70;42.90
64718;DHT22;62506;46.070;14.492;2023-02-16T15:38:59;21.70;42.90
64718;DHT22;62506;46.070;14.492;2023-02-16T15:42:09;21.80;43.00
64718;DHT22;62506;46.070;14.492;2023-02-16T15:44:38;21.80;43.10
64718;DHT22;62506;46.070;14.492;2023-02-16T15:47:41;21.80;42.90
64718;DHT22;62506;46.070;14.492;2023-02-16T15:50:46;21.80;43.10
64718;DHT22;62506;46.070;14.492;2023-02-16T15:53:59;21.80;43.20
64718;DHT22;62506;46.070;14.492;2023-02-16T15:57:18;21.80;43.20
64718;DHT22;62506;46.070;14.492;2023-02-16T15:59:53;21.80;43.20
64718;DHT22;62506;46.070;14.492;2023-02-16T16:02:59;21.80;42.90
64718;DHT22;62506;46.070;14.492;2023-02-16T16:09:16;21.80;43.00
64718;DHT22;62506;46.070;14.492;2023-02-16T16:11:47;21.80;42.90
64718;DHT22;62506;46.070;14.492;2023-02-16T16:14:18;21.80;42.70
64718;DHT22;62506;46.070;14.492;2023-02-16T16:16:52;21.90;43.40
64718;DHT22;62506;46.070;14.492;2023-02-16T16:19:36;21.90;43.00
64718;DHT22;62506;46.070;14.492;2023-02-16T16:24:47;21.80;43.10
64718;DHT22;62506;46.070;14.492;2023-02-16T16:27:13;21.80;43.10
64718;DHT22;62506;46.070;14.492;2023-02-16T16:34:46;21.80;43.10
64718;DHT22;62506;46.070;14.492;2023-02-16T16:40:04;21.90;43.00
64718;DHT22;62506;46.070;14.492;2023-02-16T16:42:30;21.90;43.20
64718;DHT22;62506;46.070;14.492;2023-02-16T16:44:59;22.00;43.10
64718;DHT22;62506;46.070;14.492;2023-02-16T16:47:26;22.00;43.10
64718;DHT22;62506;46.070;14.492;2023-02-16T16:49:57;22.10;42.90
64718;DHT22;62506;46.070;14.492;2023-02-16T16:52:31;22.10;43.40
64718;DHT22;62506;46.070;14.492;2023-02-16T16:54:56;22.00;43.10
64718;DHT22;62506;46.070;14.492;2023-02-16T16:57:22;22.00;43.00
64718;DHT22;62506;46.070;14.492;2023-02-16T16:59:48;22.00;43.10
64718;DHT22;62506;46.070;14.492;2023-02-16T17:02:14;22.00;43.20
64718;DHT22;62506;46.070;14.492;2023-02-16T17:04:40;22.00;43.20
64718;DHT22;62506;46.070;14.492;2023-02-16T17:07:28;21.90;43.40
64718;DHT22;62506;46.070;14.492;2023-02-16T17:09:54;21.90;43.40
64718;DHT22;62506;46.070;14.492;2023-02-16T17:12:22;21.90;43.40
64718;DHT22;62506;46.070;14.492;2023-02-16T17:14:47;21.90;43.50
64718;DHT22;62506;46.070;14.492;2023-02-16T17:17:13;21.90;43.40
64718;DHT22;62506;46.070;14.492;2023-02-16T17:19:39;21.90;43.50
64718;DHT22;62506;46.070;14.492;2023-02-16T17:22:10;21.90;43.60
64718;DHT22;62506;46.070;14.492;2023-02-16T17:24:36;21.90;43.60
64718;DHT22;62506;46.070;14.492;2023-02-16T17:27:05;22.00;43.60
64718;DHT22;62506;46.070;14.492;2023-02-16T17:29:53;22.00;43.10
64718;DHT22;62506;46.070;14.492;2023-02-16T17:32:19;22.10;43.10
64718;DHT22;62506;46.070;14.492;2023-02-16T17:40:17;22.20;43.10
64718;DHT22;62506;46.070;14.492;2023-02-16T17:42:44;22.20;43.00
64718;DHT22;62506;46.070;14.492;2023-02-16T17:45:10;22.20;43.00
64718;DHT22;62506;46.070;14.492;2023-02-16T17:47:35;22.30;42.90
64718;DHT22;62506;46.070;14.492;2023-02-16T17:50:01;22.30;42.90
64718;DHT22;62506;46.070;14.492;2023-02-16T17:52:28;22.30;42.80
64718;DHT22;62506;46.070;14.492;2023-02-16T17:54:54;22.30;42.80
64718;DHT22;62506;46.070;14.492;2023-02-16T17:57:19;22.30;42.70
64718;DHT22;62506;46.070;14.492;2023-02-16T17:59:45;22.30;42.80
64718;DHT22;62506;46.070;14.492;2023-02-16T18:02:13;22.40;43.50
64718;DHT22;62506;46.070;14.492;2023-02-16T18:04:40;22.40;42.80
64718;DHT22;62506;46.070;14.492;2023-02-16T18:07:09;22.40;42.80
64718;DHT22;62506;46.070;14.492;2023-02-16T18:09:52;22.40;42.80
64718;DHT22;62506;46.070;14.492;2023-02-16T18:12:22;22.40;42.80
64718;DHT22;62506;46.070;14.492;2023-02-16T18:14:48;22.50;43.20
64718;DHT22;62506;46.070;14.492;2023-02-16T18:17:13;22.50;42.80
64718;DHT22;62506;46.070;14.492;2023-02-16T18:19:39;22.50;42.80
64718;DHT22;62506;46.070;14.492;2023-02-16T18:22:05;22.50;42.80
64718;DHT22;62506;46.070;14.492;2023-02-16T18:24:31;22.50;42.60
64718;DHT22;62506;46.070;14.492;2023-02-16T18:26:56;22.60;42.60
64718;DHT22;62506;46.070;14.492;2023-02-16T18:29:22;22.60;42.60
64718;DHT22;62506;46.070;14.492;2023-02-16T18:31:48;22.70;42.80
64718;DHT22;62506;46.070;14.492;2023-02-16T18:34:13;22.60;42.80